createdAt,value
2018-07-30T00:01:17.666Z,16.87
2018-07-30T00:03:58.898Z,17.17
2018-07-30T00:06:39.733Z,16.10
2018-07-30T00:09:25.324Z,16.50
2018-07-30T00:12:06.228Z,16.30
2018-07-30T00:14:47.467Z,16.40
2018-07-30T00:17:28.669Z,19.63
2018-07-30T00:20:09.727Z,18.13
2018-07-30T00:22:50.610Z,17.73
2018-07-30T00:25:31.436Z,17.00
2018-07-30T00:28:12.549Z,20.90
2018-07-30T00:30:54.219Z,17.13
2018-07-30T00:33:35.601Z,17.67
2018-07-30T00:36:17.020Z,17.87
2018-07-30T00:38:57.639Z,17.93
2018-07-30T00:41:38.623Z,18.73
2018-07-30T00:44:20.326Z,18.60
2018-07-30T00:47:01.784Z,16.80
2018-07-30T00:49:42.461Z,20.37
2018-07-30T00:52:23.994Z,20.90
2018-07-30T00:55:04.759Z,20.10
2018-07-30T00:57:46.267Z,18.97
2018-07-30T01:00:27.061Z,17.93
2018-07-30T01:03:08.330Z,20.77
2018-07-30T01:05:49.568Z,17.33
2018-07-30T01:08:31.102Z,19.07
2018-07-30T01:11:19.950Z,18.37
2018-07-30T01:14:01.641Z,17.10
2018-07-30T01:16:43.790Z,19.73
2018-07-30T01:19:24.882Z,21.57
2018-07-30T01:22:05.614Z,16.90
2018-07-30T01:24:47.175Z,17.60
2018-07-30T01:27:28.166Z,18.30
2018-07-30T01:30:08.933Z,18.33
2018-07-30T01:32:49.873Z,17.90
2018-07-30T01:35:31.808Z,17.77
2018-07-30T01:38:13.544Z,18.80
2018-07-30T01:40:54.414Z,17.63
2018-07-30T01:43:35.109Z,18.83
2018-07-30T01:46:16.049Z,16.43
2018-07-30T01:48:57.161Z,18.70
2018-07-30T01:51:38.615Z,18.90
2018-07-30T01:54:20.149Z,20.93
2018-07-30T01:57:01.793Z,19.87
2018-07-30T01:59:44.132Z,18.43
2018-07-30T02:02:26.143Z,19.33
2018-07-30T02:05:08.659Z,19.10
2018-07-30T02:07:50.173Z,19.83
2018-07-30T02:10:31.004Z,20.03
2018-07-30T02:13:12.793Z,18.80
2018-07-30T02:15:53.389Z,21.07
2018-07-30T02:18:34.104Z,18.43
2018-07-30T02:21:15.906Z,19.23
2018-07-30T02:23:56.525Z,18.80
2018-07-30T02:26:37.916Z,22.70
2018-07-30T02:29:19.125Z,20.10
2018-07-30T02:32:01.253Z,21.10
2018-07-30T02:34:42.370Z,20.60
2018-07-30T02:37:24.011Z,20.10
2018-07-30T02:40:05.608Z,19.90
2018-07-30T02:42:47.340Z,18.50
2018-07-30T02:45:28.366Z,18.87
2018-07-30T02:48:10.059Z,17.47
2018-07-30T02:50:51.152Z,19.00
2018-07-30T02:53:32.908Z,19.13
2018-07-30T02:56:13.882Z,18.17
2018-07-30T02:58:55.518Z,18.50
2018-07-30T03:01:37.301Z,18.47
2018-07-30T03:04:19.516Z,18.13
2018-07-30T03:07:01.258Z,17.27
2018-07-30T03:09:43.048Z,16.17
2018-07-30T03:12:24.797Z,17.77
2018-07-30T03:15:06.468Z,18.13
2018-07-30T03:17:47.167Z,18.60
2018-07-30T03:20:28.723Z,16.10
2018-07-30T03:23:11.658Z,22.30
2018-07-30T03:25:54.066Z,18.00
2018-07-30T03:28:35.244Z,16.67
2018-07-30T03:31:16.559Z,16.93
2018-07-30T03:33:58.214Z,17.20
2018-07-30T03:36:38.959Z,16.63
2018-07-30T03:39:19.716Z,18.53
2018-07-30T03:42:00.494Z,24.07
2018-07-30T03:44:41.218Z,16.07
2018-07-30T03:47:22.978Z,16.50
2018-07-30T03:50:04.389Z,16.30
2018-07-30T03:52:47.322Z,15.00
2018-07-30T03:55:28.698Z,15.33
2018-07-30T03:58:09.332Z,16.33
2018-07-30T04:00:50.803Z,15.60
2018-07-30T04:03:31.827Z,16.70
2018-07-30T04:06:12.702Z,18.57
2018-07-30T04:08:54.431Z,15.43
2018-07-30T04:11:36.258Z,16.90
2018-07-30T04:14:17.852Z,18.20
2018-07-30T04:16:59.438Z,20.83
2018-07-30T04:19:40.888Z,28.73
2018-07-30T04:22:21.558Z,30.93
2018-07-30T04:25:02.364Z,22.07
2018-07-30T04:27:43.367Z,23.50
2018-07-30T04:30:24.519Z,18.43
2018-07-30T04:33:05.342Z,34.87
2018-07-30T04:35:46.729Z,21.63
2018-07-30T04:38:27.304Z,23.20
2018-07-30T04:41:08.605Z,22.67
2018-07-30T04:43:50.148Z,17.53
2018-07-30T04:46:31.429Z,18.20
2018-07-30T04:49:13.627Z,21.63
2018-07-30T04:51:54.744Z,21.30
2018-07-30T04:54:35.547Z,22.63
2018-07-30T04:57:17.177Z,20.83
2018-07-30T04:59:58.964Z,20.97
2018-07-30T05:02:41.239Z,15.93
2018-07-30T05:05:22.523Z,15.13
2018-07-30T05:08:04.193Z,15.93
2018-07-30T05:10:45.015Z,19.43
2018-07-30T05:13:26.612Z,16.07
2018-07-30T05:16:08.258Z,15.47
2018-07-30T05:18:49.902Z,16.20
2018-07-30T05:21:30.699Z,17.80
2018-07-30T05:24:11.444Z,27.17
2018-07-30T05:26:52.981Z,22.97
2018-07-30T05:29:33.995Z,18.77
2018-07-30T05:32:17.773Z,20.77
2018-07-30T05:35:01.652Z,15.67
2018-07-30T05:37:45.904Z,17.40
2018-07-30T05:40:27.908Z,23.53
2018-07-30T05:43:12.811Z,18.40
2018-07-30T05:45:56.372Z,23.60
2018-07-30T05:48:43.171Z,20.33
2018-07-30T05:51:24.656Z,26.60
2018-07-30T05:54:09.056Z,18.47
2018-07-30T05:56:49.633Z,27.47
2018-07-30T05:59:30.384Z,23.43
2018-07-30T06:02:12.066Z,19.17
2018-07-30T06:04:53.507Z,19.23
2018-07-30T06:07:34.716Z,23.30
2018-07-30T06:10:16.526Z,19.93
2018-07-30T06:12:58.118Z,22.10
2018-07-30T06:15:38.897Z,16.63
2018-07-30T06:18:19.815Z,23.23
2018-07-30T06:21:01.492Z,15.10
2018-07-30T06:23:42.582Z,25.03
2018-07-30T06:26:23.897Z,24.53
2018-07-30T06:29:06.208Z,44.27
2018-07-30T06:31:47.762Z,67.90
2018-07-30T06:34:28.507Z,20.97
2018-07-30T06:40:16.684Z,21.03
2018-07-30T06:42:58.919Z,16.80
2018-07-30T06:45:39.901Z,18.07
2018-07-30T06:48:21.898Z,18.20
2018-07-30T06:51:03.253Z,17.03
2018-07-30T06:53:44.974Z,16.90
2018-07-30T06:56:25.839Z,19.87
2018-07-30T06:59:07.517Z,17.30
2018-07-30T07:01:48.540Z,17.93
2018-07-30T07:04:30.109Z,15.73
2018-07-30T07:07:10.895Z,17.37
2018-07-30T07:09:51.636Z,15.00
2018-07-30T07:12:33.329Z,13.60
2018-07-30T07:15:15.170Z,13.60
2018-07-30T07:17:56.611Z,11.97
2018-07-30T07:20:37.715Z,12.77
2018-07-30T07:23:23.989Z,13.20
2018-07-30T07:26:05.268Z,16.40
2018-07-30T07:28:46.287Z,13.50
2018-07-30T07:31:27.892Z,12.90
2018-07-30T07:34:08.625Z,13.53
2018-07-30T07:36:49.406Z,13.97
2018-07-30T07:39:29.999Z,16.90
2018-07-30T07:42:11.045Z,16.83
2018-07-30T07:44:52.502Z,14.43
2018-07-30T07:47:33.828Z,14.60
2018-07-30T07:50:14.580Z,11.53
2018-07-30T07:52:56.222Z,16.30
2018-07-30T07:55:36.991Z,13.73
2018-07-30T07:58:18.621Z,10.60
2018-07-30T08:00:59.621Z,17.23
2018-07-30T08:03:40.485Z,10.90
2018-07-30T08:06:22.093Z,13.30
2018-07-30T08:09:02.883Z,11.53
2018-07-30T08:11:44.388Z,12.67
2018-07-30T08:14:25.008Z,13.63
2018-07-30T08:17:05.802Z,12.83
2018-07-30T08:19:46.789Z,11.67
2018-07-30T08:22:29.095Z,11.37
2018-07-30T08:25:12.294Z,10.13
2018-07-30T08:27:53.167Z,10.90
2018-07-30T08:30:34.966Z,16.70
2018-07-30T08:33:16.678Z,10.67
2018-07-30T08:35:57.397Z,11.50
2018-07-30T08:38:38.861Z,11.93
2018-07-30T08:41:19.484Z,13.40
2018-07-30T08:44:01.732Z,11.33
2018-07-30T08:46:42.901Z,9.87
2018-07-30T08:49:24.203Z,9.20
2018-07-30T08:52:05.340Z,11.10
2018-07-30T08:54:46.113Z,14.00
2018-07-30T08:57:27.085Z,14.07
2018-07-30T09:00:08.435Z,12.07
2018-07-30T09:02:50.196Z,9.80
2018-07-30T09:05:31.656Z,9.43
2018-07-30T09:08:12.553Z,10.60
2018-07-30T09:10:56.046Z,11.50
2018-07-30T09:13:36.905Z,12.03
2018-07-30T09:16:17.825Z,9.73
2018-07-30T09:18:58.525Z,9.97
2018-07-30T09:21:40.203Z,9.63
2018-07-30T09:24:22.466Z,9.90
2018-07-30T09:27:03.738Z,13.53
2018-07-30T09:29:45.218Z,10.63
2018-07-30T09:32:27.869Z,8.60
2018-07-30T09:35:08.846Z,8.63
2018-07-30T09:37:51.019Z,10.50
2018-07-30T09:40:32.024Z,9.90
2018-07-30T09:43:12.764Z,15.33
2018-07-30T09:45:53.521Z,9.13
2018-07-30T09:48:35.237Z,12.73
2018-07-30T09:51:16.080Z,11.70
2018-07-30T09:53:57.166Z,11.33
2018-07-30T09:56:38.536Z,17.57
2018-07-30T09:59:19.453Z,8.90
2018-07-30T10:02:00.647Z,10.47
2018-07-30T10:04:44.596Z,8.10
2018-07-30T10:07:25.591Z,8.23
2018-07-30T10:10:06.385Z,9.40
2018-07-30T10:12:48.347Z,12.07
2018-07-30T10:15:30.018Z,16.40
2018-07-30T10:18:11.238Z,10.93
2018-07-30T10:20:53.027Z,11.03
2018-07-30T10:23:34.750Z,10.10
2018-07-30T10:26:16.407Z,11.03
2018-07-30T10:28:57.641Z,10.40
2018-07-30T10:31:38.716Z,10.50
2018-07-30T10:34:19.422Z,20.80
2018-07-30T10:37:00.218Z,11.60
2018-07-30T10:39:41.927Z,11.53
2018-07-30T10:42:23.290Z,10.73
2018-07-30T10:45:04.087Z,10.53
2018-07-30T10:47:45.661Z,11.27
2018-07-30T10:50:26.376Z,12.33
2018-07-30T10:53:07.861Z,10.00
2018-07-30T10:55:49.278Z,10.90
2018-07-30T10:58:30.421Z,14.80
2018-07-30T11:01:12.019Z,12.43
2018-07-30T11:03:52.941Z,10.40
2018-07-30T11:06:33.788Z,9.20
2018-07-30T11:09:14.374Z,8.70
2018-07-30T11:11:56.226Z,8.63
2018-07-30T11:14:37.244Z,12.67
2018-07-30T11:17:18.746Z,10.47
2018-07-30T11:19:59.940Z,8.40
2018-07-30T11:22:41.413Z,13.90
2018-07-30T11:25:22.273Z,9.07
2018-07-30T11:28:03.099Z,8.50
2018-07-30T11:30:44.735Z,13.10
2018-07-30T11:33:25.565Z,8.73
2018-07-30T11:36:06.320Z,8.80
2018-07-30T11:38:47.340Z,14.23
2018-07-30T11:41:28.646Z,9.43
2018-07-30T11:44:10.399Z,10.73
2018-07-30T11:46:51.832Z,11.70
2018-07-30T11:49:32.624Z,9.67
2018-07-30T11:52:14.244Z,9.63
2018-07-30T11:54:55.272Z,12.93
2018-07-30T11:57:36.998Z,9.60
2018-07-30T12:00:17.631Z,12.13
2018-07-30T12:02:58.337Z,11.50
2018-07-30T12:05:39.959Z,9.57
2018-07-30T12:08:20.581Z,14.77
2018-07-30T12:11:01.229Z,10.30
2018-07-30T12:13:41.932Z,11.03
2018-07-30T12:16:23.655Z,13.43
2018-07-30T12:19:05.281Z,10.63
2018-07-30T12:21:46.342Z,12.40
2018-07-30T12:24:27.727Z,10.03
2018-07-30T12:27:08.912Z,10.47
2018-07-30T12:29:50.457Z,11.87
2018-07-30T12:32:31.808Z,12.80
2018-07-30T12:35:14.558Z,10.23
2018-07-30T12:37:56.346Z,9.97
2018-07-30T12:40:37.220Z,10.07
2018-07-30T12:43:17.888Z,14.47
2018-07-30T12:45:58.546Z,10.37
2018-07-30T12:48:39.156Z,8.97
2018-07-30T12:51:19.818Z,12.17
2018-07-30T12:54:00.506Z,11.47
2018-07-30T12:56:42.381Z,10.33
2018-07-30T12:59:23.967Z,10.47
2018-07-30T13:02:04.550Z,9.33
2018-07-30T13:04:46.672Z,14.50
2018-07-30T13:07:28.429Z,12.10
2018-07-30T13:10:09.895Z,15.93
2018-07-30T13:12:50.719Z,10.20
2018-07-30T13:15:31.332Z,11.83
2018-07-30T13:18:12.802Z,10.77
2018-07-30T13:20:53.988Z,9.77
2018-07-30T13:23:35.512Z,9.93
2018-07-30T13:26:16.520Z,11.33
2018-07-30T13:28:58.120Z,12.30
2018-07-30T13:31:39.717Z,12.33
2018-07-30T13:34:21.605Z,12.47
2018-07-30T13:37:03.081Z,10.43
2018-07-30T13:39:44.657Z,10.40
2018-07-30T13:42:26.274Z,11.70
2018-07-30T13:45:08.019Z,10.83
2018-07-30T13:47:49.180Z,17.77
2018-07-30T13:50:30.368Z,8.93
2018-07-30T13:53:11.623Z,12.20
2018-07-30T13:55:53.174Z,9.60
2018-07-30T13:58:34.764Z,13.07
2018-07-30T14:01:15.530Z,10.60
2018-07-30T14:03:57.040Z,11.10
2018-07-30T14:06:37.774Z,9.70
2018-07-30T14:09:19.603Z,11.47
2018-07-30T14:12:01.035Z,10.57
2018-07-30T14:14:42.837Z,11.30
2018-07-30T14:17:24.881Z,10.53
2018-07-30T14:20:06.064Z,11.77
2018-07-30T14:22:47.681Z,10.03
2018-07-30T14:25:28.800Z,10.10
2018-07-30T14:28:10.329Z,12.30
2018-07-30T14:30:51.084Z,10.63
2018-07-30T14:33:31.793Z,11.30
2018-07-30T14:36:14.049Z,11.47
2018-07-30T14:38:55.070Z,9.67
2018-07-30T14:41:36.171Z,13.20
2018-07-30T14:44:17.564Z,11.10
2018-07-30T14:46:58.403Z,9.30
2018-07-30T14:49:39.778Z,13.07
2018-07-30T14:52:20.964Z,10.30
2018-07-30T14:55:01.700Z,17.33
2018-07-30T14:57:42.616Z,9.40
2018-07-30T15:00:23.332Z,9.60
2018-07-30T15:03:04.072Z,13.70
2018-07-30T15:05:45.432Z,9.53
2018-07-30T15:08:26.596Z,9.63
2018-07-30T15:11:09.956Z,10.00
2018-07-30T15:13:50.736Z,9.67
2018-07-30T15:16:32.292Z,8.90
2018-07-30T15:19:12.932Z,9.10
2018-07-30T15:21:54.418Z,10.03
2018-07-30T15:24:36.111Z,10.40
2018-07-30T15:27:16.962Z,12.83
2018-07-30T15:29:58.364Z,12.60
2018-07-30T15:32:39.157Z,11.57
2018-07-30T15:35:20.109Z,16.53
2018-07-30T15:38:00.850Z,8.87
2018-07-30T15:40:41.577Z,13.50
2018-07-30T15:43:23.185Z,8.90
2018-07-30T15:46:04.928Z,13.50
2018-07-30T15:48:47.211Z,12.37
2018-07-30T15:51:28.028Z,10.30
2018-07-30T15:54:09.792Z,8.10
2018-07-30T15:56:51.223Z,8.13
2018-07-30T15:59:32.673Z,9.73
2018-07-30T16:02:13.941Z,14.73
2018-07-30T16:04:55.571Z,9.63
2018-07-30T16:07:36.626Z,9.97
2018-07-30T16:10:18.240Z,7.97
2018-07-30T16:12:59.864Z,11.17
2018-07-30T16:15:40.742Z,9.90
2018-07-30T16:18:22.338Z,7.53
2018-07-30T16:21:03.248Z,7.47
2018-07-30T16:23:43.921Z,8.10
2018-07-30T16:26:25.744Z,8.00
2018-07-30T16:29:07.352Z,8.50
2018-07-30T16:31:48.895Z,9.37
2018-07-30T16:34:29.816Z,7.20
2018-07-30T16:37:10.369Z,11.30
2018-07-30T16:39:51.009Z,8.60
2018-07-30T16:42:32.590Z,11.97
2018-07-30T16:45:13.712Z,10.43
2018-07-30T16:47:54.996Z,10.27
2018-07-30T16:50:36.223Z,9.20
2018-07-30T16:53:17.775Z,8.23
2018-07-30T16:56:00.098Z,8.00
2018-07-30T16:58:40.910Z,8.80
2018-07-30T17:01:22.986Z,8.47
2018-07-30T17:04:04.173Z,8.63
2018-07-30T17:06:44.887Z,10.33
2018-07-30T17:09:25.614Z,9.33
2018-07-30T17:12:06.458Z,12.43
2018-07-30T17:14:48.318Z,8.80
2018-07-30T17:17:29.878Z,8.80
2018-07-30T17:20:12.482Z,8.43
2018-07-30T17:22:53.199Z,15.00
2018-07-30T17:25:34.912Z,10.17
2018-07-30T17:28:15.638Z,9.77
2018-07-30T17:30:57.250Z,12.53
2018-07-30T17:33:38.073Z,9.70
2018-07-30T17:36:18.801Z,9.63
2018-07-30T17:39:00.461Z,10.40
2018-07-30T17:41:42.051Z,9.40
2018-07-30T17:44:25.189Z,11.20
2018-07-30T17:47:07.102Z,9.50
2018-07-30T17:49:48.205Z,10.87
2018-07-30T17:52:29.823Z,13.17
2018-07-30T17:55:11.579Z,13.73
2018-07-30T17:57:53.137Z,12.77
2018-07-30T18:00:34.752Z,8.87
2018-07-30T18:03:16.474Z,11.57
2018-07-30T18:05:58.029Z,11.80
2018-07-30T18:08:38.715Z,11.50
2018-07-30T18:11:19.701Z,11.47
2018-07-30T18:14:00.557Z,8.80
2018-07-30T18:16:41.679Z,9.50
2018-07-30T18:19:22.494Z,9.50
2018-07-30T18:22:04.172Z,9.10
2018-07-30T18:24:45.713Z,10.10
2018-07-30T18:27:26.466Z,9.67
2018-07-30T18:30:07.638Z,9.40
2018-07-30T18:32:51.031Z,10.10
2018-07-30T18:35:31.905Z,9.20
2018-07-30T18:38:13.884Z,10.10
2018-07-30T18:40:55.365Z,10.00
2018-07-30T18:43:37.513Z,10.10
2018-07-30T18:46:18.930Z,9.07
2018-07-30T18:48:59.664Z,10.27
2018-07-30T18:51:40.456Z,9.50
2018-07-30T18:54:22.202Z,9.70
2018-07-30T18:57:03.689Z,15.03
2018-07-30T18:59:45.318Z,13.80
2018-07-30T19:02:26.962Z,9.37
2018-07-30T19:05:07.939Z,11.47
2018-07-30T19:07:49.662Z,13.50
2018-07-30T19:10:31.360Z,9.30
2018-07-30T19:13:12.946Z,9.83
2018-07-30T19:15:54.570Z,8.90
2018-07-30T19:18:35.449Z,9.30
2018-07-30T19:21:16.259Z,19.10
2018-07-30T19:23:57.011Z,10.10
2018-07-30T19:26:37.724Z,14.73
2018-07-30T19:29:19.313Z,10.03
2018-07-30T19:31:59.962Z,10.93
2018-07-30T19:34:40.899Z,10.43
2018-07-30T19:37:21.806Z,9.97
2018-07-30T19:40:02.830Z,9.97
2018-07-30T19:42:44.499Z,14.90
2018-07-30T19:45:25.886Z,10.47
2018-07-30T19:48:07.975Z,11.50
2018-07-30T19:50:49.430Z,10.33
2018-07-30T19:53:29.978Z,10.30
2018-07-30T19:56:10.635Z,10.27
2018-07-30T19:58:51.476Z,11.30
2018-07-30T20:01:32.340Z,13.83
2018-07-30T20:04:13.800Z,16.50
2018-07-30T20:06:55.394Z,13.10
2018-07-30T20:09:36.207Z,9.93
2018-07-30T20:12:18.053Z,10.70
2018-07-30T20:15:00.013Z,10.30
2018-07-30T20:17:41.339Z,10.33
2018-07-30T20:20:22.179Z,9.87
2018-07-30T20:23:04.044Z,10.40
2018-07-30T20:25:45.328Z,12.30
2018-07-30T20:28:27.588Z,9.90
2018-07-30T20:31:08.961Z,11.63
2018-07-30T20:33:49.611Z,52.97
2018-07-30T20:36:30.338Z,71.70
2018-07-30T20:39:11.887Z,31.30
2018-07-30T20:41:52.947Z,15.63
2018-07-30T20:44:34.708Z,11.80
2018-07-30T20:47:16.361Z,9.80
2018-07-30T20:49:57.074Z,10.23
2018-07-30T20:52:38.004Z,12.27
2018-07-30T20:55:19.454Z,11.10
2018-07-30T20:58:01.126Z,12.50
2018-07-30T21:00:42.647Z,12.20
2018-07-30T21:03:24.427Z,13.03
2018-07-30T21:06:06.392Z,11.40
2018-07-30T21:08:47.612Z,11.37
2018-07-30T21:11:28.567Z,11.00
2018-07-30T21:14:09.337Z,13.43
2018-07-30T21:16:50.183Z,12.20
2018-07-30T21:19:31.872Z,11.10
2018-07-30T21:22:12.714Z,9.90
2018-07-30T21:24:54.496Z,11.23
2018-07-30T21:27:36.223Z,9.43
2018-07-30T21:30:19.518Z,11.23
2018-07-30T21:33:00.786Z,10.07
2018-07-30T21:35:42.425Z,10.67
2018-07-30T21:38:23.334Z,13.90
2018-07-30T21:41:03.976Z,11.83
2018-07-30T21:43:44.590Z,10.60
2018-07-30T21:46:26.297Z,15.53
2018-07-30T21:49:08.315Z,10.23
2018-07-30T21:51:49.862Z,8.90
2018-07-30T21:54:30.474Z,9.20
2018-07-30T21:57:11.289Z,8.53
2018-07-30T21:59:51.973Z,10.63
2018-07-30T22:02:33.526Z,9.80
2018-07-30T22:05:16.244Z,11.63
2018-07-30T22:07:57.242Z,11.60
2018-07-30T22:10:38.176Z,7.40
2018-07-30T22:13:19.739Z,14.73
2018-07-30T22:16:00.582Z,8.13
2018-07-30T22:18:41.183Z,9.47
2018-07-30T22:21:22.058Z,10.73
2018-07-30T22:24:03.633Z,6.47
2018-07-30T22:26:44.329Z,10.23
2018-07-30T22:29:25.888Z,10.27
2018-07-30T22:32:06.648Z,16.47
2018-07-30T22:34:47.363Z,7.53
2018-07-30T22:37:28.311Z,9.23
2018-07-30T22:40:10.271Z,8.30
2018-07-30T22:42:51.687Z,8.97
2018-07-30T22:45:33.432Z,7.80
2018-07-30T22:48:14.198Z,11.17
2018-07-30T22:50:55.214Z,6.80
2018-07-30T22:53:35.999Z,7.70
2018-07-30T22:56:17.651Z,10.13
2018-07-30T22:58:58.763Z,7.57
2018-07-30T23:01:40.043Z,10.20
2018-07-30T23:04:21.815Z,10.17
2018-07-30T23:07:02.528Z,8.40
2018-07-30T23:09:43.301Z,7.93
2018-07-30T23:12:24.215Z,9.40
2018-07-30T23:15:05.513Z,10.60
2018-07-30T23:17:46.808Z,11.33
2018-07-30T23:20:27.584Z,6.87
2018-07-30T23:23:08.252Z,9.47
2018-07-30T23:25:49.034Z,7.60
2018-07-30T23:28:30.682Z,8.43
2018-07-30T23:31:12.454Z,7.97
2018-07-30T23:33:54.191Z,7.40
2018-07-30T23:36:35.754Z,8.30
2018-07-30T23:39:16.660Z,10.43
2018-07-30T23:41:57.399Z,8.67
2018-07-30T23:44:39.077Z,8.83
2018-07-30T23:47:20.189Z,10.27
2018-07-30T23:50:02.015Z,10.07
2018-07-30T23:52:43.348Z,10.07
2018-07-30T23:55:25.512Z,12.30
2018-07-30T23:58:06.715Z,10.40
